createdAt,value
2023-01-06T00:02:10.448Z,2.38
2023-01-06T00:07:16.527Z,2.53
2023-01-06T00:09:52.244Z,3.05
2023-01-06T00:12:26.594Z,2.10
2023-01-06T00:15:01.051Z,2.90
2023-01-06T00:17:36.497Z,2.60
2023-01-06T00:20:10.473Z,2.70
2023-01-06T00:22:44.321Z,3.40
2023-01-06T00:25:17.725Z,2.65
2023-01-06T00:27:50.800Z,1.98
2023-01-06T00:30:25.416Z,2.45
2023-01-06T00:32:58.364Z,2.60
2023-01-06T00:38:04.652Z,2.72
2023-01-06T00:40:38.049Z,2.65
2023-01-06T00:43:11.830Z,2.35
2023-01-06T00:48:21.279Z,2.72
2023-01-06T00:53:40.210Z,2.85
2023-01-06T00:56:13.062Z,2.53
2023-01-06T00:58:46.128Z,2.72
2023-01-06T01:01:20.395Z,2.40
2023-01-06T01:03:53.296Z,2.70
2023-01-06T01:09:00.421Z,3.15
2023-01-06T01:11:50.894Z,3.08
2023-01-06T01:14:23.995Z,3.10
2023-01-06T01:16:59.048Z,3.28
2023-01-06T01:19:32.987Z,3.03
2023-01-06T01:22:06.788Z,3.30
2023-01-06T01:24:39.850Z,2.92
2023-01-06T01:27:13.081Z,3.20
2023-01-06T01:29:46.072Z,3.17
2023-01-06T01:32:20.588Z,2.92
2023-01-06T01:34:54.603Z,3.10
2023-01-06T01:37:27.572Z,2.88
2023-01-06T01:40:01.434Z,2.70
2023-01-06T01:42:34.395Z,3.00
2023-01-06T01:45:20.084Z,2.60
2023-01-06T01:48:01.147Z,3.53
2023-01-06T01:50:43.175Z,3.10
2023-01-06T01:53:20.606Z,2.67
2023-01-06T01:55:56.662Z,3.67
2023-01-06T01:58:35.486Z,3.00
2023-01-06T02:01:10.826Z,3.28
2023-01-06T02:03:45.206Z,4.55
2023-01-06T02:06:22.219Z,2.60
2023-01-06T02:09:04.032Z,3.10
2023-01-06T02:11:39.671Z,2.90
2023-01-06T02:14:14.664Z,3.15
2023-01-06T02:17:02.341Z,2.60
2023-01-06T02:20:06.973Z,2.58
2023-01-06T02:23:04.035Z,2.30
2023-01-06T02:26:00.206Z,2.33
2023-01-06T02:28:59.903Z,2.88
2023-01-06T02:31:59.256Z,2.75
2023-01-06T02:34:44.643Z,2.10
2023-01-06T02:37:37.437Z,1.80
2023-01-06T02:40:22.803Z,2.25
2023-01-06T02:43:08.137Z,2.17
2023-01-06T02:45:50.866Z,2.22
2023-01-06T02:48:34.287Z,2.20
2023-01-06T02:51:15.038Z,2.40
2023-01-06T02:54:00.032Z,2.33
2023-01-06T02:56:38.993Z,2.10
2023-01-06T02:59:21.566Z,1.83
2023-01-06T03:01:56.334Z,1.63
2023-01-06T03:04:34.843Z,1.63
2023-01-06T03:07:10.040Z,1.70
2023-01-06T03:09:46.079Z,2.08
2023-01-06T03:12:27.944Z,2.25
2023-01-06T03:15:01.643Z,2.60
2023-01-06T03:17:35.573Z,1.80
2023-01-06T03:20:12.577Z,1.92
2023-01-06T03:22:45.561Z,1.55
2023-01-06T03:27:54.511Z,2.03
2023-01-06T03:30:36.428Z,1.90
2023-01-06T03:33:19.621Z,1.75
2023-01-06T03:36:05.020Z,1.75
2023-01-06T03:38:48.539Z,1.77
2023-01-06T03:41:52.842Z,2.22
2023-01-06T03:44:34.940Z,2.10
2023-01-06T03:47:16.752Z,1.60
2023-01-06T03:49:57.187Z,1.98
2023-01-06T03:52:35.941Z,1.75
2023-01-06T03:55:14.574Z,2.55
2023-01-06T03:57:53.132Z,2.67
2023-01-06T04:00:29.758Z,2.25
2023-01-06T04:03:10.752Z,2.08
2023-01-06T04:05:44.510Z,2.75
2023-01-06T04:08:19.031Z,1.98
2023-01-06T04:10:52.137Z,1.95
2023-01-06T04:13:24.138Z,1.92
2023-01-06T04:15:59.395Z,2.00
2023-01-06T04:18:32.278Z,2.42
2023-01-06T04:21:06.131Z,1.80
2023-01-06T04:23:41.274Z,2.38
2023-01-06T04:26:14.429Z,2.33
2023-01-06T04:28:53.774Z,2.78
2023-01-06T04:31:27.150Z,1.98
2023-01-06T04:34:03.366Z,1.52
2023-01-06T04:36:36.867Z,2.47
2023-01-06T04:39:11.308Z,2.13
2023-01-06T04:41:44.239Z,1.80
2023-01-06T04:46:50.364Z,2.00
2023-01-06T04:49:23.428Z,1.73
2023-01-06T04:51:56.478Z,1.70
2023-01-06T04:54:30.892Z,1.92
2023-01-06T04:57:04.221Z,1.80
2023-01-06T04:59:37.222Z,2.30
2023-01-06T05:04:47.687Z,2.53
2023-01-06T05:07:23.472Z,1.58
2023-01-06T05:09:57.644Z,1.30
2023-01-06T05:12:31.942Z,1.63
2023-01-06T05:15:05.961Z,1.80
2023-01-06T05:17:39.174Z,1.73
2023-01-06T05:20:13.105Z,1.52
2023-01-06T05:22:46.250Z,1.42
2023-01-06T05:25:20.439Z,2.00
2023-01-06T05:27:53.254Z,1.35
2023-01-06T05:30:26.046Z,1.60
2023-01-06T05:32:58.905Z,1.40
2023-01-06T05:35:31.698Z,2.00
2023-01-06T05:38:05.725Z,1.38
2023-01-06T05:40:39.917Z,1.48
2023-01-06T05:43:12.854Z,1.80
2023-01-06T05:48:20.001Z,1.42
2023-01-06T05:50:52.854Z,2.08
2023-01-06T05:53:25.602Z,1.70
2023-01-06T05:56:02.418Z,1.48
2023-01-06T05:58:35.540Z,2.00
2023-01-06T06:01:16.817Z,2.20
2023-01-06T06:03:50.063Z,1.80
2023-01-06T06:07:18.271Z,1.75
2023-01-06T06:09:51.540Z,2.15
2023-01-06T06:12:25.758Z,2.65
2023-01-06T06:14:58.608Z,2.38
2023-01-06T06:17:32.509Z,2.45
2023-01-06T06:20:06.677Z,2.63
2023-01-06T06:23:03.997Z,2.15
2023-01-06T06:25:36.823Z,2.33
2023-01-06T06:28:11.170Z,2.75
2023-01-06T06:30:44.172Z,1.80
2023-01-06T06:35:58.410Z,1.85
2023-01-06T06:38:31.552Z,2.08
2023-01-06T06:41:06.488Z,1.75
2023-01-06T06:43:41.220Z,2.05
2023-01-06T06:46:14.452Z,2.20
2023-01-06T06:48:47.975Z,1.50
2023-01-06T06:51:23.573Z,2.78
2023-01-06T06:53:56.646Z,1.77
2023-01-06T06:56:29.658Z,3.03
2023-01-06T07:01:36.873Z,2.20
2023-01-06T07:06:43.051Z,3.03
2023-01-06T07:09:16.034Z,2.00
2023-01-06T07:11:48.984Z,2.97
2023-01-06T07:14:23.341Z,3.25
2023-01-06T07:16:56.182Z,3.58
2023-01-06T07:19:29.092Z,2.65
2023-01-06T07:24:34.742Z,3.60
2023-01-06T07:27:07.806Z,4.30
2023-01-06T07:29:42.267Z,3.70
2023-01-06T07:32:15.395Z,3.50
2023-01-06T07:34:53.187Z,4.35
2023-01-06T07:37:29.573Z,3.95
2023-01-06T07:40:02.722Z,3.10
2023-01-06T07:42:36.635Z,3.03
2023-01-06T07:45:12.067Z,4.05
2023-01-06T07:47:44.854Z,3.33
2023-01-06T07:50:17.800Z,2.67
2023-01-06T07:55:24.071Z,3.33
2023-01-06T08:00:31.171Z,3.05
2023-01-06T08:03:06.084Z,3.35
2023-01-06T08:05:41.410Z,3.60
2023-01-06T08:08:14.236Z,2.55
2023-01-06T08:10:46.987Z,2.78
2023-01-06T08:13:20.641Z,2.15
2023-01-06T08:15:54.865Z,2.55
2023-01-06T08:18:29.568Z,1.88
2023-01-06T08:21:03.018Z,2.72
2023-01-06T08:23:36.909Z,2.40
2023-01-06T08:26:13.430Z,2.30
2023-01-06T08:28:47.102Z,2.35
2023-01-06T08:31:22.505Z,2.00
2023-01-06T08:33:55.494Z,2.38
2023-01-06T08:36:29.029Z,2.55
2023-01-06T08:39:01.861Z,2.42
2023-01-06T08:41:34.672Z,1.80
2023-01-06T08:44:08.085Z,2.67
2023-01-06T08:46:42.172Z,2.22
2023-01-06T08:49:15.338Z,1.73
2023-01-06T08:51:49.692Z,2.30
2023-01-06T08:54:22.772Z,2.65
2023-01-06T08:56:55.442Z,2.58
2023-01-06T08:59:28.224Z,2.08
2023-01-06T09:02:02.761Z,1.95
2023-01-06T09:04:35.724Z,2.38
2023-01-06T09:09:41.519Z,1.77
2023-01-06T09:12:14.350Z,2.17
2023-01-06T09:14:47.147Z,1.88
2023-01-06T09:17:21.296Z,1.65
2023-01-06T09:19:54.185Z,1.90
2023-01-06T09:22:26.829Z,2.40
2023-01-06T09:24:59.523Z,1.42
2023-01-06T09:27:32.303Z,2.55
2023-01-06T09:30:06.129Z,1.48
2023-01-06T09:32:40.135Z,2.15
2023-01-06T09:35:12.965Z,2.33
2023-01-06T09:37:45.933Z,1.52
2023-01-06T09:43:03.312Z,2.05
2023-01-06T09:45:43.602Z,1.30
2023-01-06T09:48:22.108Z,1.92
2023-01-06T09:50:59.683Z,1.60
2023-01-06T09:53:37.919Z,2.20
2023-01-06T09:56:17.405Z,1.63
2023-01-06T09:58:55.725Z,1.77
2023-01-06T10:01:33.243Z,1.38
2023-01-06T10:04:07.742Z,1.48
2023-01-06T10:06:45.501Z,1.85
2023-01-06T10:09:28.364Z,1.52
2023-01-06T10:12:14.453Z,1.27
2023-01-06T10:14:59.940Z,1.02
2023-01-06T10:17:52.852Z,1.33
2023-01-06T10:20:44.649Z,1.70
2023-01-06T10:23:30.535Z,1.30
2023-01-06T10:26:12.229Z,1.65
2023-01-06T10:28:48.283Z,1.30
2023-01-06T10:31:24.497Z,0.93
2023-01-06T10:33:59.724Z,1.00
2023-01-06T10:36:39.838Z,1.33
2023-01-06T10:39:17.258Z,1.65
2023-01-06T10:42:19.475Z,1.30
2023-01-06T10:44:52.256Z,1.60
2023-01-06T10:47:29.108Z,1.33
2023-01-06T10:50:02.090Z,1.30
2023-01-06T10:55:30.188Z,1.65
2023-01-06T10:58:12.311Z,1.00
2023-01-06T11:00:59.713Z,1.50
2023-01-06T11:03:34.430Z,1.88
2023-01-06T11:06:11.380Z,1.30
2023-01-06T11:08:45.986Z,1.38
2023-01-06T11:11:29.261Z,1.63
2023-01-06T11:14:05.933Z,0.93
2023-01-06T11:16:38.933Z,1.20
2023-01-06T11:19:34.073Z,2.58
2023-01-06T11:22:27.691Z,1.08
2023-01-06T11:25:02.243Z,1.50
2023-01-06T11:27:35.191Z,1.30
2023-01-06T11:30:23.117Z,1.95
2023-01-06T11:32:56.592Z,1.30
2023-01-06T11:35:34.550Z,1.92
2023-01-06T11:38:07.436Z,1.92
2023-01-06T11:40:43.976Z,1.55
2023-01-06T11:43:20.598Z,1.75
2023-01-06T11:45:57.109Z,1.33
2023-01-06T11:48:35.426Z,1.67
2023-01-06T11:51:09.887Z,2.25
2023-01-06T11:53:57.351Z,2.30
2023-01-06T11:56:31.402Z,1.75
2023-01-06T11:59:11.537Z,1.58
2023-01-06T12:01:49.184Z,1.73
2023-01-06T12:04:29.233Z,1.80
2023-01-06T12:07:08.886Z,1.50
2023-01-06T12:09:45.440Z,1.73
2023-01-06T12:12:22.262Z,2.15
2023-01-06T12:14:56.728Z,1.80
2023-01-06T12:17:43.090Z,1.92
2023-01-06T12:20:20.718Z,1.60
2023-01-06T12:22:57.876Z,2.28
2023-01-06T12:25:36.149Z,1.48
2023-01-06T12:28:18.526Z,1.90
2023-01-06T12:31:01.273Z,1.80
2023-01-06T12:33:39.079Z,1.60
2023-01-06T12:36:18.463Z,2.17
2023-01-06T12:38:55.723Z,2.75
2023-01-06T12:41:37.359Z,2.03
2023-01-06T12:44:31.170Z,1.55
2023-01-06T12:47:13.468Z,1.77
2023-01-06T12:49:52.798Z,1.43
2023-01-06T12:52:32.322Z,1.52
2023-01-06T12:55:06.043Z,2.08
2023-01-06T12:57:54.983Z,1.27
2023-01-06T13:00:45.606Z,2.00
2023-01-06T13:03:53.842Z,1.80
2023-01-06T13:06:37.952Z,1.52
2023-01-06T13:09:25.963Z,1.15
2023-01-06T13:12:14.406Z,1.52
2023-01-06T13:14:58.843Z,1.60
2023-01-06T13:20:17.897Z,1.10
2023-01-06T13:23:04.944Z,1.33
2023-01-06T13:26:00.135Z,1.40
2023-01-06T13:28:43.631Z,1.13
2023-01-06T13:31:30.781Z,1.10
2023-01-06T13:34:30.774Z,0.90
2023-01-06T13:37:32.669Z,0.80
2023-01-06T13:40:12.229Z,0.85
2023-01-06T13:42:53.369Z,1.50
2023-01-06T13:45:31.977Z,1.73
2023-01-06T13:48:09.001Z,0.90
2023-01-06T13:50:43.952Z,0.90
2023-01-06T13:53:22.097Z,0.93
2023-01-06T13:56:25.758Z,1.52
2023-01-06T13:59:19.011Z,0.98
2023-01-06T14:01:53.146Z,0.73
2023-01-06T14:04:48.442Z,0.80
2023-01-06T14:07:34.076Z,1.10
2023-01-06T14:10:29.061Z,1.48
2023-01-06T14:13:03.012Z,1.10
2023-01-06T14:15:55.388Z,1.52
2023-01-06T14:18:35.011Z,1.30
2023-01-06T14:21:17.635Z,1.10
2023-01-06T14:23:55.343Z,1.00
2023-01-06T14:26:49.220Z,1.33
2023-01-06T14:29:59.253Z,1.38
2023-01-06T14:33:01.608Z,1.38
2023-01-06T14:35:42.026Z,1.58
2023-01-06T14:38:25.491Z,1.63
2023-01-06T14:41:04.933Z,1.67
2023-01-06T14:43:54.188Z,1.23
2023-01-06T14:46:30.295Z,1.10
2023-01-06T14:49:05.398Z,1.50
2023-01-06T14:51:38.216Z,0.80
2023-01-06T14:54:19.626Z,1.30
2023-01-06T14:56:56.499Z,1.60
2023-01-06T14:59:29.404Z,2.00
2023-01-06T15:02:05.202Z,1.90
2023-01-06T15:04:38.141Z,1.63
2023-01-06T15:07:19.441Z,1.63
2023-01-06T15:09:53.367Z,1.23
2023-01-06T15:12:30.029Z,2.05
2023-01-06T15:15:15.759Z,1.52
2023-01-06T15:17:48.530Z,1.55
2023-01-06T15:20:22.999Z,1.50
2023-01-06T15:22:56.015Z,2.03
2023-01-06T15:25:30.563Z,1.58
2023-01-06T15:28:04.606Z,1.52
2023-01-06T15:30:37.428Z,2.83
2023-01-06T15:33:12.968Z,1.55
2023-01-06T15:35:46.517Z,2.05
2023-01-06T15:38:28.006Z,1.70
2023-01-06T15:41:01.471Z,1.95
2023-01-06T15:43:44.919Z,2.33
2023-01-06T15:46:17.786Z,2.97
2023-01-06T15:48:52.203Z,1.80
2023-01-06T15:51:25.216Z,2.17
2023-01-06T15:56:32.776Z,1.83
2023-01-06T16:02:18.626Z,1.85
2023-01-06T16:08:36.516Z,2.20
2023-01-06T16:11:46.264Z,2.97
2023-01-06T16:14:28.207Z,2.35
2023-01-06T16:17:09.485Z,1.67
2023-01-06T16:19:47.754Z,1.58
2023-01-06T16:22:30.285Z,2.58
2023-01-06T16:25:06.648Z,1.80
2023-01-06T16:27:39.512Z,1.73
2023-01-06T16:30:25.270Z,1.73
2023-01-06T16:33:00.988Z,1.40
2023-01-06T16:35:35.382Z,2.00
2023-01-06T16:38:08.614Z,2.30
2023-01-06T16:40:41.547Z,2.33
2023-01-06T16:43:14.548Z,1.70
2023-01-06T16:45:51.067Z,1.95
2023-01-06T16:48:25.316Z,1.85
2023-01-06T16:50:59.153Z,2.22
2023-01-06T16:53:33.817Z,1.92
2023-01-06T16:56:15.724Z,1.90
2023-01-06T16:58:48.619Z,2.22
2023-01-06T17:03:59.003Z,1.73
2023-01-06T17:06:32.414Z,2.22
2023-01-06T17:09:17.905Z,2.92
2023-01-06T17:11:52.881Z,2.20
2023-01-06T17:14:25.824Z,2.38
2023-01-06T17:19:36.783Z,2.10
2023-01-06T17:22:22.653Z,2.58
2023-01-06T17:24:59.319Z,1.95
2023-01-06T17:27:32.158Z,3.38
2023-01-06T17:30:15.285Z,2.92
2023-01-06T17:32:48.895Z,2.30
2023-01-06T17:35:28.123Z,3.10
2023-01-06T17:38:03.736Z,3.83
2023-01-06T17:40:38.554Z,3.30
2023-01-06T17:43:23.215Z,2.88
2023-01-06T17:45:56.447Z,4.20
2023-01-06T17:48:29.418Z,5.47
2023-01-06T17:53:55.453Z,6.78
2023-01-06T17:56:28.327Z,6.28
2023-01-06T17:59:10.654Z,6.18
2023-01-06T18:01:43.718Z,6.18
2023-01-06T18:04:16.901Z,6.28
2023-01-06T18:09:25.828Z,6.07
2023-01-06T18:12:03.558Z,6.05
2023-01-06T18:14:41.925Z,6.53
2023-01-06T18:17:20.650Z,6.93
2023-01-06T18:19:53.986Z,5.75
2023-01-06T18:22:32.923Z,6.30
2023-01-06T18:25:16.929Z,7.35
2023-01-06T18:27:51.929Z,6.68
2023-01-06T18:30:28.059Z,5.88
2023-01-06T18:33:01.543Z,6.97
2023-01-06T18:35:34.406Z,6.18
2023-01-06T18:38:09.322Z,6.47
2023-01-06T18:40:43.205Z,7.80
2023-01-06T18:43:23.832Z,8.57
2023-01-06T18:45:59.881Z,9.38
2023-01-06T18:48:34.551Z,9.40
2023-01-06T18:51:20.332Z,9.45
2023-01-06T18:53:54.519Z,9.85
2023-01-06T18:56:27.678Z,11.48
2023-01-06T18:59:00.824Z,10.52
2023-01-06T19:01:43.605Z,13.13
2023-01-06T19:04:22.118Z,11.02
2023-01-06T19:06:57.196Z,11.27
2023-01-06T19:09:34.743Z,11.10
2023-01-06T19:12:18.094Z,10.27
2023-01-06T19:14:53.604Z,11.48
2023-01-06T19:17:29.842Z,12.10
2023-01-06T19:20:13.638Z,11.20
2023-01-06T19:22:48.799Z,10.95
2023-01-06T19:25:32.243Z,10.02
2023-01-06T19:28:13.836Z,10.13
2023-01-06T19:30:51.311Z,10.15
2023-01-06T19:33:36.685Z,10.93
2023-01-06T19:36:39.330Z,10.98
2023-01-06T19:39:25.241Z,12.17
2023-01-06T19:42:12.879Z,10.63
2023-01-06T19:44:48.577Z,11.02
2023-01-06T19:47:24.703Z,10.73
2023-01-06T19:50:00.096Z,10.23
2023-01-06T19:52:35.627Z,9.93
2023-01-06T19:55:27.207Z,9.65
2023-01-06T19:58:06.122Z,9.45
2023-01-06T20:00:46.917Z,9.45
2023-01-06T20:03:29.242Z,9.27
2023-01-06T20:06:02.384Z,10.23
2023-01-06T20:08:35.337Z,10.55
2023-01-06T20:13:42.577Z,10.60
2023-01-06T20:16:15.447Z,10.77
2023-01-06T20:18:48.220Z,10.65
2023-01-06T20:21:20.966Z,10.32
2023-01-06T20:23:53.834Z,10.98
2023-01-06T20:26:27.165Z,10.45
2023-01-06T20:29:04.017Z,10.07
2023-01-06T20:31:36.948Z,11.88
2023-01-06T20:36:42.387Z,11.18
2023-01-06T20:39:15.236Z,11.95
2023-01-06T20:41:48.007Z,11.13
2023-01-06T20:44:25.100Z,11.95
2023-01-06T20:46:57.890Z,11.50
2023-01-06T20:49:31.020Z,11.05
2023-01-06T20:52:03.977Z,11.88
2023-01-06T20:57:09.357Z,11.77
2023-01-06T20:59:43.468Z,11.45
2023-01-06T21:02:16.967Z,11.05
2023-01-06T21:04:51.349Z,11.43
2023-01-06T21:07:27.140Z,11.93
2023-01-06T21:10:00.981Z,11.77
2023-01-06T21:12:33.922Z,10.30
2023-01-06T21:17:41.942Z,12.32
2023-01-06T21:20:14.817Z,11.75
2023-01-06T21:22:47.646Z,11.15
2023-01-06T21:25:20.513Z,13.15
2023-01-06T21:27:53.512Z,11.23
2023-01-06T21:33:01.760Z,12.93
2023-01-06T21:35:34.944Z,12.90
2023-01-06T21:38:07.691Z,15.20
2023-01-06T21:40:40.578Z,14.18
2023-01-06T21:43:12.535Z,14.20
2023-01-06T21:45:47.930Z,13.63
2023-01-06T21:48:22.499Z,14.38
2023-01-06T21:50:55.255Z,14.63
2023-01-06T21:53:30.736Z,13.07
2023-01-06T21:56:03.635Z,12.15
2023-01-06T22:01:10.670Z,12.27
2023-01-06T22:03:43.855Z,11.65
2023-01-06T22:08:54.505Z,11.77
2023-01-06T22:11:29.990Z,11.02
2023-01-06T22:14:03.427Z,11.27
2023-01-06T22:16:40.642Z,10.23
2023-01-06T22:19:15.209Z,10.85
2023-01-06T22:21:50.894Z,10.95
2023-01-06T22:24:25.146Z,9.85
2023-01-06T22:26:58.121Z,9.40
2023-01-06T22:29:31.261Z,8.63
2023-01-06T22:32:07.327Z,9.73
2023-01-06T22:34:41.577Z,7.60
2023-01-06T22:37:14.694Z,8.10
2023-01-06T22:39:49.433Z,7.43
2023-01-06T22:42:22.789Z,8.55
2023-01-06T22:44:56.246Z,7.80
2023-01-06T22:47:30.958Z,8.25
2023-01-06T22:50:05.580Z,7.35
2023-01-06T22:52:38.436Z,8.10
2023-01-06T22:55:12.126Z,7.50
2023-01-06T22:57:45.174Z,7.15
2023-01-06T23:00:19.715Z,7.60
2023-01-06T23:02:53.912Z,7.18
2023-01-06T23:05:26.934Z,8.23
2023-01-06T23:07:59.776Z,6.80
2023-01-06T23:10:32.805Z,6.50
2023-01-06T23:13:05.642Z,8.25
2023-01-06T23:15:38.521Z,7.15
2023-01-06T23:20:45.593Z,6.93
2023-01-06T23:23:18.550Z,7.50
2023-01-06T23:25:51.324Z,6.85
2023-01-06T23:28:24.309Z,7.65
2023-01-06T23:33:38.646Z,6.40
2023-01-06T23:36:13.199Z,6.95
2023-01-06T23:38:46.895Z,7.53
2023-01-06T23:41:21.849Z,7.25
2023-01-06T23:43:56.154Z,7.25
2023-01-06T23:46:30.466Z,7.22
2023-01-06T23:49:05.547Z,7.20
2023-01-06T23:51:38.914Z,6.55
2023-01-06T23:54:13.006Z,6.45
2023-01-06T23:56:46.064Z,6.65
